Aviation Digital Data Service (ADDS)

Output produced by METARs form (0101 UTC 15 August 2020)
found at http://www.aviationweather.gov/metar/data/
 
Forecast for: RJOK (KOCHI AIRPORT , JP)
Text: TAF RJOK 142308Z 1500/1606 18008KT 9999 FEW030
Forecast period: 0000 to 1000 UTC 15 August 2020
Forecast type: FROM: standard forecast or significant change
Winds: from the S (180 degrees) at 9 MPH (8 knots; 4.1 m/s)
Visibility: 6 or more miles (10+ km)
Ceiling: at least 12,000 feet AGL
Clouds: few clouds at 3000 feet AGL
Weather: no significant weather forecast for this period
Text: BECMG 1510/1512 35005KT
Forecast period: 1000 UTC 15 August 2020 to 0000 UTC 16 August 2020
Forecast type: BECOMING: Conditions expected to become as follows by 1200 UTC 15 August 2020
Winds: from the N (350 degrees) at 6 MPH (5 knots; 2.6 m/s)
Visibility: 6 or more miles (10+ km)
Ceiling: at least 12,000 feet AGL
Clouds: few clouds at 3000 feet AGL
Weather: no significant weather forecast for this period
Text: BECMG 1600/1603 18008KT
Forecast period: 0000 to 0600 UTC 16 August 2020
Forecast type: BECOMING: Conditions expected to become as follows by 0300 UTC 16 August 2020
Winds: from the S (180 degrees) at 9 MPH (8 knots; 4.1 m/s)
Visibility: 6 or more miles (10+ km)
Ceiling: at least 12,000 feet AGL
Clouds: few clouds at 3000 feet AGL
Weather: no significant weather forecast for this period